Time;durP1;ratioP1;P1;durP2;ratioP2;P2;SDS_P1;SDS_P2;PMS_P1;PMS_P2;Temp;Humidity;BMP_temperature;BMP_pressure;BME280_temperature;BME280_humidity;BME280_pressure;Samples;Min_cycle;Max_cycle;Signal;HPM_P1;HPM_P2
2021/06/08 04:58:24;;;;;;;;;;;;;;;13.47;100.00;100140.94;4975404;28;19928;-81
2021/06/08 05:00:56;;;;;;;;;;;;;;;13.48;100.00;100143.50;4961075;28;19934;-81
2021/06/08 05:03:24;;;;;;;;;;;;;;;13.29;100.00;100147.97;4978434;28;19926;-84
2021/06/08 05:05:52;;;;;;;;;;;;;;;13.25;100.00;100145.44;4981079;28;19922;-91
2021/06/08 05:08:38;;;;;;;;;;;;;;;13.09;100.00;100144.47;4964370;28;19922;-89
2021/06/08 05:11:11;;;;;;;;;;;;;;;13.10;100.00;100143.53;4974526;28;19990;-87
2021/06/08 05:13:37;;;;;;;;;;;;;;;13.07;100.00;100141.03;4945941;29;19937;-86
2021/06/08 05:16:03;;;;;;;;;;;;;;;13.21;100.00;100141.22;4944834;29;19922;-87
2021/06/08 05:18:29;;;;;;;;;;;;;;;13.24;100.00;100138.41;4962001;29;19922;-84
2021/06/08 05:20:54;;;;;;;;;;;;;;;13.17;100.00;100138.78;4945230;29;19930;-84
2021/06/08 05:23:20;;;;;;;;;;;;;;;13.17;100.00;100138.78;4962705;29;19926;-84
2021/06/08 05:25:48;;;;;;;;;;;;;;;13.18;100.00;100146.69;4962415;29;20330;-84
2021/06/08 05:28:14;;;;;;;;;;;;;;;13.27;100.00;100137.41;4945985;29;20009;-84
2021/06/08 05:30:40;;;;;;;;;;;;;;;13.25;100.00;100131.28;4945199;29;20009;-84
2021/06/08 05:33:08;;;;;;;;;;;;;;;13.29;100.00;100134.66;4963733;29;19922;-87
2021/06/08 05:35:33;;;;;;;;;;;;;;;13.30;100.00;100134.59;4945945;29;20016;-86
2021/06/08 05:38:03;;;;;;;;;;;;;;;13.32;100.00;100139.84;4945531;29;20009;-86
2021/06/08 05:40:28;;;;;;;;;;;;;;;13.34;100.00;100141.53;4946023;29;19948;-87
2021/06/08 05:42:53;;;;;;;;;;;;;;;13.35;100.00;100147.69;4963023;29;20294;-87
2021/06/08 05:45:19;;;;;;;;;;;;;;;13.38;100.00;100147.56;4962582;29;19926;-87
2021/06/08 05:47:44;;;;;;;;;;;;;;;13.33;100.00;100144.25;4962582;29;19930;-87
2021/06/08 05:50:11;;;;;;;;;;;;;;;13.35;100.00;100142.38;4946316;29;19929;-86
2021/06/08 05:52:36;;;;;;;;;;;;;;;13.32;100.00;100142.50;4962401;29;19922;-87
2021/06/08 05:55:03;;;;;;;;;;;;;;;13.42;100.00;100149.16;4962575;29;20001;-86
2021/06/08 05:57:28;;;;;;;;;;;;;;;13.41;100.00;100142.94;4962631;29;19933;-86
2021/06/08 05:59:53;;;;;;;;;;;;;;;13.41;100.00;100142.09;4962709;29;19926;-87
2021/06/08 06:02:19;;;;;;;;;;;;;;;13.40;100.00;100145.66;4962602;29;20083;-86
2021/06/08 06:04:44;;;;;;;;;;;;;;;13.42;100.00;100152.66;4962512;29;19929;-86
2021/06/08 06:07:10;;;;;;;;;;;;;;;13.39;100.00;100151.94;4945490;29;19923;-86
2021/06/08 06:09:36;;;;;;;;;;;;;;;13.38;100.00;100152.88;4962770;29;19933;-86
2021/06/08 06:12:05;;;;;;;;;;;;;;;13.40;100.00;100151.88;4962711;29;19922;-86
2021/06/08 06:14:30;;;;;;;;;;;;;;;13.41;100.00;100150.06;4945309;28;20253;-86
2021/06/08 06:16:56;;;;;;;;;;;;;;;13.43;100.00;100153.50;4944247;29;19922;-86
2021/06/08 06:19:22;;;;;;;;;;;;;;;13.35;100.00;100153.03;4961948;29;19995;-86
2021/06/08 06:21:49;;;;;;;;;;;;;;;13.26;100.00;100149.00;4945740;29;19926;-86
2021/06/08 06:24:14;;;;;;;;;;;;;;;13.31;100.00;100152.28;4945580;29;19922;-86
2021/06/08 06:26:40;;;;;;;;;;;;;;;13.36;100.00;100160.09;4961411;29;20282;-86
2021/06/08 06:29:27;;;;;;;;;;;;;;;13.32;100.00;100151.34;4945345;29;19922;-86
2021/06/08 06:31:56;;;;;;;;;;;;;;;13.28;100.00;100160.41;4961668;29;19923;-86
2021/06/08 06:34:24;;;;;;;;;;;;;;;13.09;100.00;100145.31;4967843;28;19922;-82
2021/06/08 06:36:50;;;;;;;;;;;;;;;13.11;100.00;100153.22;4981059;28;19978;-88
2021/06/08 06:39:23;;;;;;;;;;;;;;;12.32;100.00;100161.28;4967660;28;19926;-90
2021/06/08 06:41:50;;;;;;;;;;;;;;;12.27;100.00;100153.50;4976589;28;20202;-84
2021/06/08 06:44:17;;;;;;;;;;;;;;;12.70;100.00;100156.00;4978018;28;20008;-88
2021/06/08 06:46:44;;;;;;;;;;;;;;;12.78;100.00;100158.34;4972124;28;20959;-84
2021/06/08 06:49:09;;;;;;;;;;;;;;;12.69;100.00;100154.31;4971318;28;19922;-83
2021/06/08 06:51:35;;;;;;;;;;;;;;;12.63;100.00;100159.91;4969239;28;19931;-86
2021/06/08 06:54:01;;;;;;;;;;;;;;;12.63;100.00;100157.25;4965121;28;19923;-86
2021/06/08 06:56:27;;;;;;;;;;;;;;;12.60;100.00;100152.91;4960910;28;19926;-86
2021/06/08 06:58:54;;;;;;;;;;;;;;;12.74;100.00;100152.31;4960861;29;19937;-86
2021/06/08 07:01:20;;;;;;;;;;;;;;;12.65;100.00;100152.72;4960504;28;19989;-86
2021/06/08 07:03:46;;;;;;;;;;;;;;;12.63;100.00;100154.59;4960572;28;19923;-85
2021/06/08 07:06:13;;;;;;;;;;;;;;;12.60;100.00;100152.06;4960976;29;20286;-87
2021/06/08 07:08:39;;;;;;;;;;;;;;;12.64;100.00;100145.69;4961211;28;19961;-85
2021/06/08 07:11:05;;;;;;;;;;;;;;;12.84;100.00;100150.97;4960866;28;19964;-85
2021/06/08 07:13:31;;;;;;;;;;;;;;;12.95;100.00;100150.44;4960823;28;20263;-85
2021/06/08 07:15:56;;;;;;;;;;;;;;;13.03;100.00;100147.41;4960697;28;19962;-85
2021/06/08 07:18:22;;;;;;;;;;;;;;;12.99;100.00;100143.19;4960530;28;19923;-84
2021/06/08 07:20:47;;;;;;;;;;;;;;;13.17;100.00;100142.31;4960246;28;20294;-85
2021/06/08 07:23:16;;;;;;;;;;;;;;;12.83;100.00;100141.25;4959831;28;19977;-85
2021/06/08 07:44:01;;;;;;;;;;;;;;;13.47;100.00;100139.13;3256472;26;20173;-83
2021/06/08 07:46:27;;;;;;;;;;;;;;;13.33;100.00;100138.94;4942942;29;20472;-83
2021/06/08 07:48:53;;;;;;;;;;;;;;;13.69;100.00;100146.91;4958730;29;19934;-82
2021/06/08 07:51:19;;;;;;;;;;;;;;;13.18;100.00;100141.38;4959741;29;20285;-82
2021/06/08 07:53:45;;;;;;;;;;;;;;;13.17;100.00;100138.78;4958504;29;19918;-82
2021/06/08 07:56:11;;;;;;;;;;;;;;;13.05;100.00;100134.91;4959744;29;19977;-82
2021/06/08 07:58:38;;;;;;;;;;;;;;;13.22;100.00;100140.28;4959819;29;19929;-82
2021/06/08 08:01:03;;;;;;;;;;;;;;;13.16;100.00;100142.38;4960178;29;20355;-82
2021/06/08 08:03:30;;;;;;;;;;;;;;;13.16;100.00;100147.69;4959295;29;19981;-83
2021/06/08 08:06:01;;;;;;;;;;;;;;;13.22;100.00;100142.09;4959414;29;19965;-83
2021/06/08 08:08:27;;;;;;;;;;;;;;;13.23;100.00;100138.50;4959683;29;19929;-83
2021/06/08 08:10:53;;;;;;;;;;;;;;;13.24;100.00;100146.41;4959218;29;19933;-82
2021/06/08 08:13:22;;;;;;;;;;;;;;;13.31;100.00;100138.97;4959280;29;19923;-82
2021/06/08 08:15:49;;;;;;;;;;;;;;;13.63;100.00;100140.06;4941936;29;20316;-83
2021/06/08 08:18:16;;;;;;;;;;;;;;;13.24;100.00;100134.88;4958189;29;19929;-82
2021/06/08 08:20:45;;;;;;;;;;;;;;;13.22;100.00;100132.28;4953872;29;19926;-82
2021/06/08 08:23:10;;;;;;;;;;;;;;;13.14;100.00;100138.94;4942178;29;20298;-82
2021/06/08 08:25:36;;;;;;;;;;;;;;;13.08;100.00;100140.97;4941326;29;19927;-82
2021/06/08 08:28:03;;;;;;;;;;;;;;;13.61;100.00;100131.31;4959107;29;20309;-83
2021/06/08 08:30:29;;;;;;;;;;;;;;;13.62;100.00;100138.38;4959174;29;19927;-83
2021/06/08 08:32:54;;;;;;;;;;;;;;;13.49;100.00;100131.91;4959278;29;19923;-81
2021/06/08 08:35:20;;;;;;;;;;;;;;;13.47;100.00;100136.47;4958463;29;19950;-82
2021/06/08 08:37:45;;;;;;;;;;;;;;;13.50;100.00;100127.44;4941368;28;19923;-83
2021/06/08 08:40:11;;;;;;;;;;;;;;;13.22;100.00;100126.13;4957848;29;19934;-82
2021/06/08 08:42:36;;;;;;;;;;;;;;;13.16;100.00;100126.41;4958493;29;19935;-83
2021/06/08 08:45:02;;;;;;;;;;;;;;;13.68;100.00;100129.19;4958136;29;19933;-83
2021/06/08 08:47:29;;;;;;;;;;;;;;;13.38;100.00;100123.59;4941937;29;19922;-83
2021/06/08 08:49:54;;;;;;;;;;;;;;;13.41;100.00;100123.44;4942363;29;20290;-83
2021/06/08 08:52:22;;;;;;;;;;;;;;;13.25;100.00;100118.84;4941481;29;20017;-83
2021/06/08 08:54:48;;;;;;;;;;;;;;;13.12;100.00;100120.38;4958754;29;19923;-83
2021/06/08 08:57:18;;;;;;;;;;;;;;;12.96;100.00;100119.41;4959708;29;19933;-84
2021/06/08 08:59:43;;;;;;;;;;;;;;;13.09;100.00;100117.88;4955152;28;20230;-83
2021/06/08 09:02:09;;;;;;;;;;;;;;;13.00;100.00;100115.63;4959716;28;19922;-84
2021/06/08 09:04:34;;;;;;;;;;;;;;;13.04;100.00;100114.56;4934728;29;19934;-83
2021/06/08 09:07:00;;;;;;;;;;;;;;;12.93;100.00;100107.09;4956906;29;20286;-85
2021/06/08 09:09:25;;;;;;;;;;;;;;;12.98;100.00;100109.53;4959104;29;20605;-83
2021/06/08 09:11:50;;;;;;;;;;;;;;;13.08;100.00;100116.13;4959102;29;20306;-83
2021/06/08 09:14:16;;;;;;;;;;;;;;;13.10;100.00;100116.94;4959009;29;19922;-83
2021/06/08 09:16:42;;;;;;;;;;;;;;;13.01;100.00;100109.41;4958677;29;19922;-84
2021/06/08 09:19:08;;;;;;;;;;;;;;;13.15;100.00;100111.41;4942104;29;19972;-83
2021/06/08 09:21:38;;;;;;;;;;;;;;;13.54;100.00;100118.38;4943078;29;20005;-84
2021/06/08 09:24:22;;;;;;;;;;;;;;;13.47;100.00;100114.31;4955680;29;19922;-84
2021/06/08 09:26:58;;;;;;;;;;;;;;;13.21;100.00;100117.28;4950703;29;19926;-83
2021/06/08 09:29:30;;;;;;;;;;;;;;;13.44;100.00;100120.66;4959944;29;19919;-84
2021/06/08 09:32:15;;;;;;;;;;;;;;;13.40;100.00;100113.72;4958076;29;19961;-84
2021/06/08 09:34:48;;;;;;;;;;;;;;;13.47;100.00;100120.50;4949623;28;20013;-84
2021/06/08 09:37:14;;;;;;;;;;;;;;;13.61;100.00;100119.81;4958090;29;19923;-84
2021/06/08 09:39:47;;;;;;;;;;;;;;;13.49;100.00;100121.28;4941166;29;19926;-83
2021/06/08 09:42:22;;;;;;;;;;;;;;;13.17;100.00;100123.69;4943495;29;19923;-85
2021/06/08 09:44:47;;;;;;;;;;;;;;;13.30;100.00;100115.97;4942010;29;19923;-84
2021/06/08 09:47:24;;;;;;;;;;;;;;;13.88;100.00;100120.22;4941891;29;19923;-85
2021/06/08 09:49:49;;;;;;;;;;;;;;;13.54;100.00;100121.91;4946626;29;19922;-86
2021/06/08 09:52:18;;;;;;;;;;;;;;;13.33;100.00;100117.66;4947364;29;19933;-83
2021/06/08 09:54:44;;;;;;;;;;;;;;;13.23;100.00;100120.72;4944448;29;19982;-84
2021/06/08 09:57:28;;;;;;;;;;;;;;;13.17;100.00;100120.16;4936653;29;20218;-84
2021/06/08 09:59:56;;;;;;;;;;;;;;;13.55;100.00;100126.28;4938456;29;19926;-83
2021/06/08 10:02:23;;;;;;;;;;;;;;;13.47;100.00;100117.84;4947701;29;20006;-83
2021/06/08 10:04:48;;;;;;;;;;;;;;;13.27;100.00;100119.66;4956119;29;19918;-84
2021/06/08 10:07:43;;;;;;;;;;;;;;;13.52;100.00;100122.94;4956773;28;20012;-83
2021/06/08 10:10:13;;;;;;;;;;;;;;;13.91;100.00;100125.38;4936489;29;19923;-83
2021/06/08 10:13:04;;;;;;;;;;;;;;;13.89;100.00;100116.59;4956420;29;19922;-83
2021/06/08 10:15:31;;;;;;;;;;;;;;;13.75;100.00;100124.41;4950425;29;19933;-84
2021/06/08 10:17:57;;;;;;;;;;;;;;;14.01;100.00;100125.78;4952906;29;19931;-84
2021/06/08 10:20:24;;;;;;;;;;;;;;;13.69;100.00;100124.72;4941144;29;19927;-85
2021/06/08 10:22:50;;;;;;;;;;;;;;;13.71;100.00;100125.53;4961516;28;19931;-83
2021/06/08 10:25:15;;;;;;;;;;;;;;;14.06;100.00;100122.88;4961828;28;19931;-83
2021/06/08 10:27:41;;;;;;;;;;;;;;;13.93;100.00;100122.66;4951564;29;19930;-83
2021/06/08 10:30:08;;;;;;;;;;;;;;;13.89;100.00;100124.59;4950982;29;19997;-83
2021/06/08 10:32:34;;;;;;;;;;;;;;;13.73;100.00;100127.16;4956253;29;19929;-83
2021/06/08 10:35:00;;;;;;;;;;;;;;;13.56;100.00;100120.03;4960752;29;19922;-83
2021/06/08 10:37:25;;;;;;;;;;;;;;;13.66;100.00;100120.44;4954731;29;19945;-84
2021/06/08 10:39:54;;;;;;;;;;;;;;;13.52;100.00;100113.13;4955338;29;19938;-86
2021/06/08 10:42:19;;;;;;;;;;;;;;;13.53;100.00;100116.66;4938561;29;19934;-83
2021/06/08 10:44:44;;;;;;;;;;;;;;;13.55;100.00;100120.13;4938320;29;20229;-85
2021/06/08 10:47:22;;;;;;;;;;;;;;;13.63;100.00;100117.94;4933251;29;19922;-85
2021/06/08 10:49:47;;;;;;;;;;;;;;;13.58;100.00;100120.81;4945819;29;19922;-85
2021/06/08 10:52:15;;;;;;;;;;;;;;;13.71;100.00;100117.53;4951206;29;19945;-83
2021/06/08 10:54:43;;;;;;;;;;;;;;;13.72;100.00;100113.91;4943250;28;19926;-86
2021/06/08 10:57:13;;;;;;;;;;;;;;;13.61;100.00;100107.34;4968857;28;20175;-83
2021/06/08 10:59:47;;;;;;;;;;;;;;;13.45;100.00;100109.06;4973547;28;19930;-83
2021/06/08 11:02:13;;;;;;;;;;;;;;;13.38;100.00;100104.97;4973267;28;19922;-84
2021/06/08 11:04:59;;;;;;;;;;;;;;;13.32;100.00;100106.09;4966580;28;20228;-83
2021/06/08 11:07:57;;;;;;;;;;;;;;;13.55;100.00;100105.00;4946749;28;19932;-84
2021/06/08 11:10:25;;;;;;;;;;;;;;;13.50;100.00;100103.50;4932138;28;19933;-83
2021/06/08 11:13:12;;;;;;;;;;;;;;;13.48;100.00;100105.38;4955462;28;19937;-83
2021/06/08 11:15:46;;;;;;;;;;;;;;;13.58;100.00;100099.53;4938111;28;19923;-83
2021/06/08 11:18:18;;;;;;;;;;;;;;;14.05;100.00;100094.50;4962125;28;19961;-83
2021/06/08 11:20:44;;;;;;;;;;;;;;;13.75;100.00;100084.47;4973450;28;19954;-83
2021/06/08 11:23:09;;;;;;;;;;;;;;;14.13;100.00;100090.47;4977100;28;20339;-83
2021/06/08 11:25:41;;;;;;;;;;;;;;;13.60;100.00;100089.66;4963516;28;19972;-84
2021/06/08 11:28:07;;;;;;;;;;;;;;;13.70;100.00;100089.19;4963511;28;19926;-83
2021/06/08 11:30:34;;;;;;;;;;;;;;;13.61;100.00;100094.03;4950248;28;19996;-83
2021/06/08 11:33:05;;;;;;;;;;;;;;;13.40;100.00;100090.66;4954716;28;19933;-84
2021/06/08 11:35:33;;;;;;;;;;;;;;;13.50;100.00;100084.84;4969964;28;19922;-83
2021/06/08 11:38:00;;;;;;;;;;;;;;;13.33;100.00;100085.72;4969851;28;20324;-87
2021/06/08 11:40:38;;;;;;;;;;;;;;;13.34;100.00;100082.97;4971887;28;19959;-82
2021/06/08 11:43:11;;;;;;;;;;;;;;;13.39;100.00;100072.97;4977659;28;20306;-86
2021/06/08 11:45:39;;;;;;;;;;;;;;;13.41;100.00;100076.41;4970296;28;19922;-84
2021/06/08 11:48:25;;;;;;;;;;;;;;;13.81;100.00;100073.50;4960128;28;19933;-83
2021/06/08 11:50:51;;;;;;;;;;;;;;;13.87;100.00;100067.88;4970998;28;19980;-84
2021/06/08 11:53:16;;;;;;;;;;;;;;;13.77;100.00;100061.31;4972874;28;19934;-84
2021/06/08 11:55:42;;;;;;;;;;;;;;;13.90;100.00;100059.72;4960637;28;19976;-83
2021/06/08 11:58:26;;;;;;;;;;;;;;;14.02;100.00;100060.03;4969237;28;19999;-82
2021/06/08 12:00:52;;;;;;;;;;;;;;;13.96;100.00;100064.72;4968911;28;20443;-82
2021/06/08 12:03:25;;;;;;;;;;;;;;;14.14;100.00;100051.38;4951915;28;19981;-83
2021/06/08 12:05:50;;;;;;;;;;;;;;;13.75;100.00;100060.50;4973260;28;19969;-83
2021/06/08 12:08:28;;;;;;;;;;;;;;;14.50;100.00;100044.97;4968411;28;20375;-84
2021/06/08 12:10:54;;;;;;;;;;;;;;;13.84;100.00;100052.06;4972649;28;19957;-82
2021/06/08 12:13:30;;;;;;;;;;;;;;;13.63;100.00;100046.91;4972442;28;20183;-83
2021/06/08 12:15:56;;;;;;;;;;;;;;;13.60;100.00;100044.38;4972167;28;19974;-84
2021/06/08 12:18:34;;;;;;;;;;;;;;;13.62;100.00;100039.88;4969812;28;19922;-84
2021/06/08 12:20:59;;;;;;;;;;;;;;;13.61;100.00;100039.94;4970565;28;19937;-82
2021/06/08 12:23:28;;;;;;;;;;;;;;;13.81;100.00;100039.75;4970406;28;19926;-83
2021/06/08 12:26:04;;;;;;;;;;;;;;;13.86;100.00;100042.16;4966705;28;20001;-83
2021/06/08 12:28:29;;;;;;;;;;;;;;;13.84;100.00;100030.75;4965529;28;19926;-82
2021/06/08 12:31:08;;;;;;;;;;;;;;;14.19;100.00;100032.47;4953852;28;19933;-82
2021/06/08 12:33:33;;;;;;;;;;;;;;;14.21;100.00;100036.78;4975599;28;19922;-83
2021/06/08 12:36:03;;;;;;;;;;;;;;;14.21;100.00;100028.78;4974587;28;19922;-84
2021/06/08 12:38:29;;;;;;;;;;;;;;;13.91;100.00;100033.94;4974532;28;19930;-82
2021/06/08 12:41:05;;;;;;;;;;;;;;;13.66;100.00;100034.34;4947303;29;19937;-83
2021/06/08 12:43:41;;;;;;;;;;;;;;;13.64;100.00;100031.78;4972405;28;19929;-84
2021/06/08 12:46:06;;;;;;;;;;;;;;;14.19;100.00;100028.00;4966354;28;19938;-83
2021/06/08 12:48:32;;;;;;;;;;;;;;;14.12;100.00;100029.25;4963880;28;19919;-82
2021/06/08 12:50:57;;;;;;;;;;;;;;;14.14;100.00;100030.06;4976495;28;20379;-82
2021/06/08 12:53:27;;;;;;;;;;;;;;;13.88;100.00;100037.66;4965157;28;19922;-85
2021/06/08 12:55:53;;;;;;;;;;;;;;;13.81;100.00;100037.06;4962057;28;20001;-85
2021/06/08 12:58:18;;;;;;;;;;;;;;;13.87;100.00;100019.94;4978624;28;19922;-82
2021/06/08 13:00:44;;;;;;;;;;;;;;;13.99;100.00;100023.72;4966713;28;19933;-83
2021/06/08 13:03:10;;;;;;;;;;;;;;;13.93;100.00;100022.28;4960406;28;19922;-83
2021/06/08 13:05:36;;;;;;;;;;;;;;;14.18;100.00;100023.59;4968715;28;19926;-83
2021/06/08 13:08:03;;;;;;;;;;;;;;;14.15;100.00;100023.78;4962806;28;19926;-84
2021/06/08 13:10:31;;;;;;;;;;;;;;;14.22;100.00;100021.66;4945713;28;19922;-83
2021/06/08 13:13:03;;;;;;;;;;;;;;;13.98;100.00;100014.88;4960983;28;19922;-82
2021/06/08 13:15:30;;;;;;;;;;;;;;;13.96;100.00;100014.13;4972775;28;19985;-83
2021/06/08 13:18:03;;;;;;;;;;;;;;;14.03;100.00;100017.31;4977751;28;19961;-82
2021/06/08 13:20:30;;;;;;;;;;;;;;;14.23;100.00;100016.25;4971879;28;19927;-82
2021/06/08 13:22:55;;;;;;;;;;;;;;;14.18;100.00;100023.59;4975456;28;20029;-82
2021/06/08 13:25:23;;;;;;;;;;;;;;;14.28;100.00;100016.84;4958371;28;20280;-82
2021/06/08 13:27:48;;;;;;;;;;;;;;;14.41;100.00;100016.16;4974351;28;19951;-82
2021/06/08 13:30:16;;;;;;;;;;;;;;;14.39;100.00;100020.72;4960735;28;20231;-83
2021/06/08 13:32:41;;;;;;;;;;;;;;;14.26;100.00;100024.03;4979892;28;20170;-83
2021/06/08 13:35:09;;;;;;;;;;;;;;;14.18;100.00;100026.28;4966583;28;19937;-82
2021/06/08 13:37:39;;;;;;;;;;;;;;;14.10;100.00;100016.03;4975383;28;19926;-83
2021/06/08 13:40:12;;;;;;;;;;;;;;;14.41;100.00;100008.16;4975143;28;20036;-83
2021/06/08 13:42:37;;;;;;;;;;;;;;;14.52;100.00;100000.47;4977598;28;19949;-85
2021/06/08 13:45:09;;;;;;;;;;;;;;;14.71;100.00;100001.16;4971796;28;19930;-83
2021/06/08 13:47:38;;;;;;;;;;;;;;;14.66;100.00;100000.56;4966965;28;19950;-83
2021/06/08 13:50:05;;;;;;;;;;;;;;;14.59;100.00;99998.31;4955061;28;19922;-82
2021/06/08 13:53:00;;;;;;;;;;;;;;;14.51;100.00;100001.38;4958334;28;19922;-82
2021/06/08 13:55:42;;;;;;;;;;;;;;;14.26;100.00;99993.88;4978810;28;19972;-86
2021/06/08 14:00:17;;;;;;;;;;;;;;;14.03;100.00;99997.81;4971875;28;19949;-86
2021/06/08 14:01:05;;;;;;;;;;;;;;;14.27;100.00;99993.81;4979837;28;20024;-84
2021/06/08 14:03:31;;;;;;;;;;;;;;;14.08;100.00;99996.59;4960867;28;19922;-83
2021/06/08 14:06:05;;;;;;;;;;;;;;;14.14;100.00;99987.44;4990001;28;20336;-85
2021/06/08 14:08:31;;;;;;;;;;;;;;;13.87;100.00;99998.63;4964227;28;20202;-84
2021/06/08 14:10:57;;;;;;;;;;;;;;;13.72;100.00;100002.09;4969425;28;19933;-83
2021/06/08 14:13:27;;;;;;;;;;;;;;;13.73;100.00;99993.16;4967376;28;19933;-82
2021/06/08 14:15:52;;;;;;;;;;;;;;;13.69;100.00;99986.28;4976516;28;19921;-85
2021/06/08 14:18:18;;;;;;;;;;;;;;;13.58;100.00;99987.72;4966391;28;19923;-82
2021/06/08 14:20:43;;;;;;;;;;;;;;;13.81;100.00;99980.31;4970606;28;19930;-82
2021/06/08 14:23:09;;;;;;;;;;;;;;;13.69;100.00;99987.16;4979912;28;19933;-85
2021/06/08 14:25:36;;;;;;;;;;;;;;;13.58;100.00;99987.72;4975582;28;19926;-83
2021/06/08 14:28:02;;;;;;;;;;;;;;;13.80;100.00;99989.22;4967858;28;20295;-83
2021/06/08 14:30:27;;;;;;;;;;;;;;;13.96;100.00;99979.50;4975270;28;19922;-82
2021/06/08 14:32:52;;;;;;;;;;;;;;;13.90;100.00;99985.16;4979370;28;19919;-84
2021/06/08 14:35:18;;;;;;;;;;;;;;;14.26;100.00;99976.06;4977643;28;20214;-84
2021/06/08 14:37:43;;;;;;;;;;;;;;;14.57;100.00;99981.50;4971138;28;19922;-82
2021/06/08 14:40:09;;;;;;;;;;;;;;;14.32;100.00;99978.41;4964094;28;19930;-82
2021/06/08 14:42:35;;;;;;;;;;;;;;;14.22;100.00;99984.34;4974898;28;19930;-82
2021/06/08 14:45:00;;;;;;;;;;;;;;;14.43;100.00;99982.31;4952586;28;19977;-82
2021/06/08 14:47:26;;;;;;;;;;;;;;;14.53;100.00;99983.50;4954898;28;19929;-81
2021/06/08 14:49:52;;;;;;;;;;;;;;;14.35;100.00;99990.72;4960718;28;19922;-83
2021/06/08 14:52:18;;;;;;;;;;;;;;;14.58;100.00;99989.41;4962295;28;19922;-84
2021/06/08 14:54:44;;;;;;;;;;;;;;;14.44;100.00;100000.00;4970564;28;19926;-82
2021/06/08 14:57:09;;;;;;;;;;;;;;;14.57;100.00;100003.72;4969279;28;20009;-83
2021/06/08 14:59:35;;;;;;;;;;;;;;;14.65;100.00;99998.84;4960695;28;19949;-84
2021/06/08 15:02:00;;;;;;;;;;;;;;;14.49;100.00;99997.97;4999430;28;19926;-83
2021/06/08 15:04:26;;;;;;;;;;;;;;;14.41;100.00;100010.81;4962989;28;19926;-86
2021/06/08 15:06:55;;;;;;;;;;;;;;;13.94;100.00;100005.31;4975037;28;20379;-83
2021/06/08 15:09:20;;;;;;;;;;;;;;;13.69;100.00;99999.59;4974568;28;20079;-84
2021/06/08 15:11:46;;;;;;;;;;;;;;;13.56;100.00;100002.03;4974444;28;20017;-84
2021/06/08 15:14:11;;;;;;;;;;;;;;;13.49;100.00;100006.81;4950932;28;19930;-83
2021/06/08 15:16:36;;;;;;;;;;;;;;;13.40;100.00;100007.28;4977693;28;20025;-83
2021/06/08 15:19:02;;;;;;;;;;;;;;;12.93;100.00;100010.50;4965278;28;19922;-83
2021/06/08 15:21:27;;;;;;;;;;;;;;;13.12;100.00;100008.66;4960987;28;19926;-83
2021/06/08 15:23:53;;;;;;;;;;;;;;;13.27;100.00;100001.69;4951157;28;19922;-83
2021/06/08 15:26:18;;;;;;;;;;;;;;;13.29;100.00;99999.84;4968956;28;19922;-83
2021/06/08 15:28:45;;;;;;;;;;;;;;;13.51;100.00;100002.25;4957767;28;20290;-82
2021/06/08 15:31:11;;;;;;;;;;;;;;;13.44;100.00;99998.22;4957080;28;19922;-82
2021/06/08 15:33:36;;;;;;;;;;;;;;;13.37;100.00;99992.34;4978712;28;19937;-82
2021/06/08 15:36:02;;;;;;;;;;;;;;;13.38;100.00;99991.38;4970274;28;19922;-82
2021/06/08 15:38:32;;;;;;;;;;;;;;;13.43;100.00;99997.34;4975216;28;20347;-82
2021/06/08 15:40:58;;;;;;;;;;;;;;;13.45;100.00;99994.63;4952265;28;19926;-82
2021/06/08 15:43:23;;;;;;;;;;;;;;;13.38;100.00;99991.38;4967684;28;20016;-83
2021/06/08 15:45:48;;;;;;;;;;;;;;;13.20;100.00;99994.97;4967554;28;19934;-82
2021/06/08 15:48:14;;;;;;;;;;;;;;;14.08;100.00;99999.28;4967904;28;19977;-83
2021/06/08 15:50:40;;;;;;;;;;;;;;;14.15;100.00;99995.34;4969009;28;19922;-82
2021/06/08 15:53:05;;;;;;;;;;;;;;;14.22;100.00;99987.88;4968880;28;20049;-82
2021/06/08 15:55:32;;;;;;;;;;;;;;;14.23;100.00;99986.94;4974099;28;19922;-82
2021/06/08 15:57:58;;;;;;;;;;;;;;;14.22;100.00;99995.88;4970285;28;19935;-83
2021/06/08 16:00:23;;;;;;;;;;;;;;;14.27;100.00;99998.28;4954580;28;19952;-83
2021/06/08 16:02:49;;;;;;;;;;;;;;;14.18;100.00;99996.97;4973011;28;19933;-82
2021/06/08 16:05:14;;;;;;;;;;;;;;;14.29;100.00;99997.22;4977608;28;19933;-84
2021/06/08 16:07:40;;;;;;;;;;;;;;;14.24;100.00;99995.78;4970810;28;20319;-82
2021/06/08 16:10:08;;;;;;;;;;;;;;;14.28;100.00;100006.19;4969977;28;19922;-83
2021/06/08 16:12:33;;;;;;;;;;;;;;;14.21;100.00;100006.59;4967073;28;19923;-83
2021/06/08 16:14:59;;;;;;;;;;;;;;;14.25;100.00;100008.13;4967503;28;20333;-82
2021/06/08 16:17:24;;;;;;;;;;;;;;;14.27;100.00;100012.47;4977159;28;19965;-81
2021/06/08 16:19:50;;;;;;;;;;;;;;;14.29;100.00;100007.03;4953542;28;20017;-82
2021/06/08 16:22:19;;;;;;;;;;;;;;;14.33;100.00;100011.28;4973678;28;20183;-82
2021/06/08 16:24:44;;;;;;;;;;;;;;;14.19;100.00;100009.34;4948753;28;19929;-83
2021/06/08 16:27:10;;;;;;;;;;;;;;;14.28;100.00;100010.63;4954176;28;19930;-83
2021/06/08 16:29:35;;;;;;;;;;;;;;;14.31;100.00;100007.81;4953903;28;19945;-82
2021/06/08 16:32:01;;;;;;;;;;;;;;;14.40;100.00;100009.13;4955458;28;19936;-82
2021/06/08 16:34:27;;;;;;;;;;;;;;;14.38;100.00;100005.69;4951361;28;20073;-83
2021/06/08 16:36:54;;;;;;;;;;;;;;;14.33;100.00;100000.63;4974333;28;20291;-84
2021/06/08 16:39:20;;;;;;;;;;;;;;;14.40;100.00;100001.13;4975630;28;19929;-83
2021/06/08 16:41:46;;;;;;;;;;;;;;;14.22;100.00;100006.53;4966433;28;19922;-82
2021/06/08 16:44:11;;;;;;;;;;;;;;;14.32;100.00;100006.88;4967110;28;20402;-84
2021/06/08 16:46:37;;;;;;;;;;;;;;;14.33;100.00;100004.13;4974739;28;20048;-85
2021/06/08 16:49:06;;;;;;;;;;;;;;;14.30;100.00;100009.63;4970161;28;19930;-86
2021/06/08 16:53:13;;;;;;;;;;;;;;;14.28;100.00;100008.84;4976622;28;19926;-82
2021/06/08 16:54:21;;;;;;;;;;;;;;;14.17;100.00;100016.59;4969545;28;19922;-85
2021/06/08 16:56:46;;;;;;;;;;;;;;;14.18;100.00;100015.63;4957039;28;19950;-82
2021/06/08 16:59:12;;;;;;;;;;;;;;;14.12;100.00;100018.59;4978796;28;19968;-82
2021/06/08 17:01:38;;;;;;;;;;;;;;;14.11;100.00;100014.25;4969245;28;19930;-83
2021/06/08 17:04:03;;;;;;;;;;;;;;;14.06;100.00;100018.97;4974010;28;19922;-84
2021/06/08 17:06:30;;;;;;;;;;;;;;;14.12;100.00;100015.94;4959112;28;19922;-84
2021/06/08 17:08:55;;;;;;;;;;;;;;;14.10;100.00;100009.84;4971523;28;19929;-84
2021/06/08 17:11:21;;;;;;;;;;;;;;;14.17;100.00;100016.59;4969452;28;19930;-83
2021/06/08 17:13:47;;;;;;;;;;;;;;;14.29;100.00;100009.72;4959104;28;20022;-84
2021/06/08 17:16:12;;;;;;;;;;;;;;;14.29;100.00;100002.56;4975252;28;19981;-82
2021/06/08 17:18:39;;;;;;;;;;;;;;;14.31;100.00;100010.47;4974695;28;20322;-82
2021/06/08 17:21:05;;;;;;;;;;;;;;;14.21;100.00;100010.13;4977730;28;19937;-86
2021/06/08 17:23:30;;;;;;;;;;;;;;;14.23;100.00;100005.59;4974834;28;19938;-83
2021/06/08 17:25:56;;;;;;;;;;;;;;;14.21;100.00;100006.59;4977404;28;19920;-81
2021/06/08 17:28:23;;;;;;;;;;;;;;;14.22;100.00;100006.53;4977890;28;19922;-81
2021/06/08 17:30:49;;;;;;;;;;;;;;;14.32;100.00;100012.22;4971248;28;20341;-80
2021/06/08 17:33:15;;;;;;;;;;;;;;;14.20;100.00;100005.75;4956721;28;19922;-81
2021/06/08 17:35:40;;;;;;;;;;;;;;;14.34;100.00;100015.63;4968393;28;19982;-82
2021/06/08 17:38:06;;;;;;;;;;;;;;;14.21;100.00;100007.47;4971191;28;19933;-82
2021/06/08 17:40:35;;;;;;;;;;;;;;;14.27;100.00;100007.13;4976769;28;19926;-84
2021/06/08 17:43:01;;;;;;;;;;;;;;;14.27;100.00;100009.78;4972636;28;19922;-81
2021/06/08 17:45:26;;;;;;;;;;;;;;;14.34;100.00;100010.31;4971233;28;19922;-84
2021/06/08 17:47:52;;;;;;;;;;;;;;;14.35;100.00;100014.72;4972874;28;19918;-81